createdAt,value
2023-05-19T00:01:22.175Z,15.95
2023-05-19T00:04:26.674Z,15.85
2023-05-19T00:07:33.983Z,15.86
2023-05-19T00:10:40.640Z,15.81
2023-05-19T00:13:48.484Z,15.90
2023-05-19T00:16:53.005Z,15.82
2023-05-19T00:19:56.847Z,15.83
2023-05-19T00:23:00.866Z,15.91
2023-05-19T00:26:06.174Z,15.93
2023-05-19T00:29:10.066Z,15.99
2023-05-19T00:32:13.986Z,15.90
2023-05-19T00:35:18.222Z,16.08
2023-05-19T00:38:22.020Z,15.98
2023-05-19T00:41:27.680Z,15.97
2023-05-19T00:44:31.532Z,16.01
2023-05-19T00:47:36.033Z,15.97
2023-05-19T00:50:40.189Z,16.01
2023-05-19T00:53:48.723Z,15.91
2023-05-19T00:56:54.832Z,15.96
2023-05-19T00:59:58.930Z,15.87
2023-05-19T01:03:03.294Z,15.91
2023-05-19T01:06:07.791Z,15.94
2023-05-19T01:09:12.404Z,16.02
2023-05-19T01:12:17.801Z,15.88
2023-05-19T01:15:21.836Z,15.86
2023-05-19T01:18:32.440Z,15.98
2023-05-19T01:22:24.449Z,15.94
2023-05-19T01:26:07.269Z,15.96
2023-05-19T01:29:30.650Z,15.97
2023-05-19T01:32:37.592Z,15.95
2023-05-19T01:35:43.494Z,15.97
2023-05-19T01:38:48.386Z,15.96
2023-05-19T01:41:54.012Z,15.85
2023-05-19T01:44:58.536Z,15.84
2023-05-19T01:48:08.468Z,15.91
2023-05-19T01:51:15.816Z,15.97
2023-05-19T01:54:20.118Z,15.96
2023-05-19T01:57:34.084Z,15.96
2023-05-19T02:00:53.015Z,15.93
2023-05-19T02:04:30.660Z,15.97
2023-05-19T02:07:44.032Z,15.98
2023-05-19T02:10:53.442Z,15.91
2023-05-19T02:14:01.192Z,15.85
2023-05-19T02:17:07.145Z,15.88
2023-05-19T02:20:13.614Z,15.83
2023-05-19T02:23:17.648Z,15.91
2023-05-19T02:26:21.788Z,15.82
2023-05-19T02:29:26.160Z,15.83
2023-05-19T02:32:30.340Z,15.90
2023-05-19T02:35:35.854Z,15.79
2023-05-19T02:38:39.928Z,15.90
2023-05-19T02:41:44.098Z,15.86
2023-05-19T02:44:48.193Z,15.75
2023-05-19T02:47:52.299Z,15.74
2023-05-19T02:50:57.749Z,15.76
2023-05-19T02:54:01.843Z,15.81
2023-05-19T02:57:06.174Z,15.70
2023-05-19T03:00:11.533Z,15.73
2023-05-19T03:03:15.805Z,15.77
2023-05-19T03:06:23.575Z,15.74
2023-05-19T03:09:27.802Z,15.77
2023-05-19T03:12:31.927Z,15.83
2023-05-19T03:15:37.002Z,15.69
2023-05-19T03:18:41.022Z,15.80
2023-05-19T03:21:46.693Z,15.82
2023-05-19T03:24:51.929Z,15.83
2023-05-19T03:27:56.074Z,15.82
2023-05-19T03:31:00.108Z,15.77
2023-05-19T03:34:09.561Z,15.75
2023-05-19T03:37:15.031Z,15.83
2023-05-19T03:40:19.265Z,15.77
2023-05-19T03:43:23.957Z,15.64
2023-05-19T03:46:35.287Z,15.85
2023-05-19T03:49:57.216Z,15.73
2023-05-19T03:53:31.855Z,15.97
2023-05-19T03:56:36.236Z,16.00
2023-05-19T03:59:41.640Z,16.03
2023-05-19T04:02:45.752Z,15.89
2023-05-19T04:05:50.297Z,15.97
2023-05-19T04:08:56.054Z,16.10
2023-05-19T04:11:59.879Z,16.07
2023-05-19T04:15:04.001Z,16.12
2023-05-19T04:18:08.132Z,16.13
2023-05-19T04:21:12.219Z,15.90
2023-05-19T04:24:17.528Z,16.18
2023-05-19T04:27:22.311Z,16.15
2023-05-19T04:30:27.130Z,16.16
2023-05-19T04:33:31.057Z,16.33
2023-05-19T04:36:35.542Z,16.33
2023-05-19T04:39:43.331Z,16.37
2023-05-19T04:42:50.179Z,16.34
2023-05-19T04:45:54.942Z,16.52
2023-05-19T04:49:01.520Z,16.51
2023-05-19T04:52:07.115Z,16.67
2023-05-19T04:55:13.499Z,17.45
2023-05-19T04:58:18.603Z,17.73
2023-05-19T05:01:26.434Z,18.23
2023-05-19T05:04:32.152Z,18.33
2023-05-19T05:07:36.117Z,18.33
2023-05-19T05:10:41.770Z,18.65
2023-05-19T05:13:46.546Z,18.50
2023-05-19T05:16:52.404Z,18.56
2023-05-19T05:20:00.630Z,18.61
2023-05-19T05:23:05.337Z,18.89
2023-05-19T05:26:20.168Z,18.92
2023-05-19T05:29:26.688Z,19.08
2023-05-19T05:32:31.434Z,18.86
2023-05-19T05:35:36.641Z,19.14
2023-05-19T05:38:42.074Z,19.23
2023-05-19T05:41:47.773Z,19.62
2023-05-19T05:44:51.945Z,19.59
2023-05-19T05:47:56.664Z,19.78
2023-05-19T05:51:01.466Z,19.64
2023-05-19T05:54:09.692Z,19.96
2023-05-19T05:57:19.806Z,19.93
2023-05-19T06:00:24.368Z,20.18
2023-05-19T06:03:30.307Z,20.14
2023-05-19T06:06:39.529Z,20.41
2023-05-19T06:09:43.718Z,20.52
2023-05-19T06:12:49.512Z,20.64
2023-05-19T06:15:54.067Z,20.71
2023-05-19T06:19:03.000Z,20.60
2023-05-19T06:22:07.016Z,20.84
2023-05-19T06:25:11.925Z,20.58
2023-05-19T06:28:17.945Z,20.30
2023-05-19T06:31:22.274Z,20.50
2023-05-19T06:34:30.109Z,20.32
2023-05-19T06:37:34.287Z,20.38
2023-05-19T06:40:38.694Z,20.55
2023-05-19T06:43:44.438Z,20.96
2023-05-19T06:46:51.291Z,20.84
2023-05-19T06:49:57.067Z,20.90
2023-05-19T06:53:04.778Z,21.50
2023-05-19T06:56:09.384Z,21.63
2023-05-19T06:59:17.594Z,21.82
2023-05-19T07:02:22.172Z,21.00
2023-05-19T07:05:26.319Z,20.77
2023-05-19T07:08:34.937Z,20.91
2023-05-19T07:11:40.361Z,21.34
2023-05-19T07:14:47.114Z,22.16
2023-05-19T07:17:53.211Z,22.24
2023-05-19T07:20:58.005Z,21.96
2023-05-19T07:24:02.735Z,22.07
2023-05-19T07:27:07.411Z,21.83
2023-05-19T07:30:14.157Z,22.10
2023-05-19T07:33:18.169Z,22.65
2023-05-19T07:36:22.272Z,22.88
2023-05-19T07:39:29.920Z,22.70
2023-05-19T07:42:34.007Z,22.50
2023-05-19T07:45:39.670Z,23.13
2023-05-19T07:48:43.787Z,23.13
2023-05-19T07:51:47.994Z,23.20
2023-05-19T07:54:52.092Z,23.12
2023-05-19T07:57:56.593Z,22.64
2023-05-19T08:01:02.555Z,23.26
2023-05-19T08:04:07.316Z,23.21
2023-05-19T08:07:12.587Z,23.75
2023-05-19T08:10:16.663Z,24.35
2023-05-19T08:13:20.732Z,24.41
2023-05-19T08:16:26.424Z,24.23
2023-05-19T08:19:30.563Z,23.85
2023-05-19T08:22:34.641Z,24.19
2023-05-19T08:25:38.740Z,23.87
2023-05-19T08:28:42.895Z,23.82
2023-05-19T08:31:48.556Z,24.12
2023-05-19T08:34:52.692Z,24.37
2023-05-19T08:37:56.825Z,24.53
2023-05-19T08:41:00.873Z,24.48
2023-05-19T08:44:05.354Z,24.39
2023-05-19T08:47:14.134Z,24.80
2023-05-19T08:50:23.293Z,24.78
2023-05-19T08:53:34.355Z,25.47
2023-05-19T08:56:40.077Z,25.49
2023-05-19T08:59:45.469Z,25.62
2023-05-19T09:03:00.425Z,25.72
2023-05-19T09:06:10.455Z,25.56
2023-05-19T09:09:14.596Z,25.34
2023-05-19T09:12:18.650Z,25.53
2023-05-19T09:15:27.674Z,25.93
2023-05-19T09:18:33.584Z,26.40
2023-05-19T09:21:37.863Z,26.52
2023-05-19T09:24:42.139Z,26.66
2023-05-19T09:27:47.027Z,26.36
2023-05-19T09:30:51.168Z,26.65
2023-05-19T09:33:58.109Z,27.13
2023-05-19T09:37:02.475Z,27.47
2023-05-19T09:40:11.139Z,27.54
2023-05-19T09:43:16.010Z,28.11
2023-05-19T09:46:20.138Z,27.81
2023-05-19T09:49:27.617Z,27.60
2023-05-19T09:52:32.009Z,26.58
2023-05-19T09:55:36.654Z,25.96
2023-05-19T09:58:44.014Z,25.46
2023-05-19T10:01:49.968Z,24.91
2023-05-19T10:04:56.981Z,24.84
2023-05-19T10:08:01.708Z,24.33
2023-05-19T10:11:07.109Z,24.31
2023-05-19T10:14:11.267Z,24.38
2023-05-19T10:17:16.111Z,24.13
2023-05-19T10:20:21.954Z,24.34
2023-05-19T10:23:26.255Z,24.49
2023-05-19T10:26:31.550Z,24.22
2023-05-19T10:29:41.492Z,24.64
2023-05-19T10:32:48.941Z,25.74
2023-05-19T10:36:14.612Z,26.19
2023-05-19T10:39:20.909Z,26.93
2023-05-19T10:42:35.441Z,26.95
2023-05-19T10:45:47.796Z,26.58
2023-05-19T10:48:51.831Z,26.09
2023-05-19T10:51:58.669Z,25.77
2023-05-19T10:55:03.097Z,25.25
2023-05-19T10:58:07.167Z,24.69
2023-05-19T11:01:14.594Z,24.67
2023-05-19T11:04:19.540Z,24.52
2023-05-19T11:07:25.965Z,24.55
2023-05-19T11:10:29.999Z,25.44
2023-05-19T11:13:34.079Z,26.37
2023-05-19T11:16:38.160Z,26.84
2023-05-19T11:19:53.793Z,27.24
2023-05-19T11:23:07.601Z,25.68
2023-05-19T11:26:12.083Z,26.06
2023-05-19T11:29:16.822Z,26.02
2023-05-19T11:32:22.740Z,24.65
2023-05-19T11:35:27.957Z,23.93
2023-05-19T11:38:34.055Z,23.60
2023-05-19T11:41:41.189Z,23.22
2023-05-19T11:44:46.820Z,23.35
2023-05-19T11:48:01.283Z,23.11
2023-05-19T11:51:08.499Z,23.80
2023-05-19T11:54:14.499Z,24.56
2023-05-19T11:57:18.980Z,25.34
2023-05-19T12:00:25.374Z,25.76
2023-05-19T12:03:30.002Z,25.67
2023-05-19T12:06:34.993Z,26.02
2023-05-19T12:09:40.714Z,26.29
2023-05-19T12:12:46.512Z,26.43
2023-05-19T12:15:53.600Z,26.80
2023-05-19T12:18:57.819Z,26.91
2023-05-19T12:22:04.007Z,27.03
2023-05-19T12:25:11.668Z,27.01
2023-05-19T12:28:17.793Z,26.80
2023-05-19T12:31:23.941Z,26.88
2023-05-19T12:34:28.068Z,26.62
2023-05-19T12:37:33.567Z,26.73
2023-05-19T12:40:40.018Z,26.77
2023-05-19T12:43:44.569Z,26.78
2023-05-19T12:46:48.528Z,26.99
2023-05-19T12:50:02.348Z,27.09
2023-05-19T12:53:10.416Z,27.05
2023-05-19T12:56:17.838Z,26.89
2023-05-19T12:59:37.376Z,26.86
2023-05-19T13:02:58.142Z,27.24
2023-05-19T13:06:02.379Z,27.74
2023-05-19T13:09:07.500Z,27.49
2023-05-19T13:12:13.143Z,27.44
2023-05-19T13:15:17.471Z,27.23
2023-05-19T13:18:21.703Z,27.12
2023-05-19T13:21:25.757Z,27.25
2023-05-19T13:24:29.992Z,27.45
2023-05-19T13:27:35.692Z,27.76
2023-05-19T13:30:41.093Z,28.03
2023-05-19T13:33:45.209Z,28.09
2023-05-19T13:36:49.364Z,28.09
2023-05-19T13:39:53.410Z,27.36
2023-05-19T13:42:59.317Z,26.61
2023-05-19T13:46:03.428Z,26.19
2023-05-19T13:49:07.681Z,25.91
2023-05-19T13:52:12.017Z,25.58
2023-05-19T13:55:16.619Z,25.52
2023-05-19T13:58:22.819Z,25.24
2023-05-19T14:01:26.996Z,25.99
2023-05-19T14:04:31.074Z,26.49
2023-05-19T14:07:36.012Z,26.92
2023-05-19T14:10:40.130Z,27.15
2023-05-19T14:13:45.690Z,26.83
2023-05-19T14:16:49.850Z,26.36
2023-05-19T14:19:54.093Z,25.59
2023-05-19T14:22:58.169Z,24.75
2023-05-19T14:26:02.275Z,25.11
2023-05-19T14:29:07.810Z,24.19
2023-05-19T14:32:11.976Z,23.40
2023-05-19T14:35:16.102Z,23.13
2023-05-19T14:41:24.073Z,23.34
2023-05-19T14:44:34.208Z,23.31
2023-05-19T14:47:38.360Z,22.90
2023-05-19T14:50:42.514Z,22.47
2023-05-19T14:53:46.646Z,22.15
2023-05-19T14:56:50.814Z,22.13
2023-05-19T14:59:56.334Z,21.62
2023-05-19T15:03:00.436Z,21.06
2023-05-19T15:06:04.473Z,21.28
2023-05-19T15:09:08.519Z,21.35
2023-05-19T15:12:12.599Z,20.71
2023-05-19T15:15:18.287Z,20.75
2023-05-19T15:18:22.317Z,20.63
2023-05-19T15:21:26.469Z,20.44
2023-05-19T15:24:30.616Z,20.51
2023-05-19T15:27:36.662Z,20.49
2023-05-19T15:30:43.329Z,20.52
2023-05-19T15:33:47.456Z,20.51
2023-05-19T15:36:51.517Z,20.60
2023-05-19T15:39:56.112Z,20.91
2023-05-19T15:43:00.246Z,20.69
2023-05-19T15:46:06.360Z,20.96
2023-05-19T15:49:12.850Z,20.65
2023-05-19T15:52:17.445Z,20.72
2023-05-19T15:55:22.218Z,20.90
2023-05-19T15:58:26.373Z,21.21
2023-05-19T16:01:32.171Z,21.54
2023-05-19T16:04:36.282Z,21.92
2023-05-19T16:07:42.352Z,21.69
2023-05-19T16:10:46.506Z,21.39
2023-05-19T16:13:50.508Z,21.69
2023-05-19T16:16:56.035Z,21.56
2023-05-19T16:20:00.177Z,21.58
2023-05-19T16:23:04.458Z,21.52
2023-05-19T16:26:08.439Z,21.67
2023-05-19T16:29:12.934Z,21.82
2023-05-19T16:32:18.635Z,21.70
2023-05-19T16:35:22.907Z,21.69
2023-05-19T16:38:27.098Z,21.63
2023-05-19T16:41:31.133Z,21.62
2023-05-19T16:44:35.169Z,21.49
2023-05-19T16:47:40.737Z,21.51
2023-05-19T16:50:44.756Z,21.51
2023-05-19T16:53:48.831Z,21.31
2023-05-19T16:56:53.782Z,21.27
2023-05-19T16:59:57.924Z,21.10
2023-05-19T17:03:03.598Z,21.05
2023-05-19T17:06:07.865Z,21.27
2023-05-19T17:09:11.896Z,21.30
2023-05-19T17:12:16.083Z,21.35
2023-05-19T17:15:20.179Z,21.35
2023-05-19T17:18:25.695Z,21.40
2023-05-19T17:21:29.792Z,21.54
2023-05-19T17:24:34.707Z,21.62
2023-05-19T17:27:38.797Z,21.65
2023-05-19T17:30:43.018Z,21.70
2023-05-19T17:33:48.597Z,21.70
2023-05-19T17:36:52.617Z,21.67
2023-05-19T17:39:56.630Z,21.47
2023-05-19T17:43:00.729Z,21.45
2023-05-19T17:46:05.007Z,21.50
2023-05-19T17:49:10.905Z,21.51
2023-05-19T17:52:16.229Z,21.50
2023-05-19T17:55:21.397Z,21.43
2023-05-19T17:58:26.087Z,21.46
2023-05-19T18:01:30.592Z,21.32
2023-05-19T18:04:36.753Z,21.35
2023-05-19T18:07:41.614Z,21.42
2023-05-19T18:10:46.330Z,21.39
2023-05-19T18:13:50.388Z,21.36
2023-05-19T18:16:54.438Z,21.42
2023-05-19T18:19:59.993Z,21.40
2023-05-19T18:23:04.092Z,21.39
2023-05-19T18:26:08.143Z,21.36
2023-05-19T18:29:13.993Z,21.35
2023-05-19T18:32:18.237Z,21.19
2023-05-19T18:35:23.800Z,21.23
2023-05-19T18:38:28.029Z,21.19
2023-05-19T18:41:32.447Z,21.10
2023-05-19T18:44:36.575Z,21.14
2023-05-19T18:47:40.586Z,21.11
2023-05-19T18:50:46.163Z,21.09
2023-05-19T18:53:51.045Z,21.20
2023-05-19T18:56:56.457Z,21.20
2023-05-19T19:00:00.594Z,21.12
2023-05-19T19:03:04.808Z,20.95
2023-05-19T19:06:10.347Z,20.81
2023-05-19T19:09:14.477Z,20.85
2023-05-19T19:12:20.292Z,20.80
2023-05-19T19:15:24.655Z,20.67
2023-05-19T19:18:28.818Z,20.85
2023-05-19T19:21:34.238Z,20.86
2023-05-19T19:24:38.340Z,20.81
2023-05-19T19:27:42.276Z,20.72
2023-05-19T19:30:47.144Z,20.65
2023-05-19T19:33:51.183Z,20.70
2023-05-19T19:36:56.600Z,20.64
2023-05-19T19:40:00.538Z,20.59
2023-05-19T19:43:04.539Z,20.49
2023-05-19T19:46:09.490Z,20.41
2023-05-19T19:49:13.556Z,20.45
2023-05-19T19:52:19.015Z,20.40
2023-05-19T19:55:23.121Z,20.32
2023-05-19T19:58:27.813Z,20.30
2023-05-19T20:01:31.790Z,20.27
2023-05-19T20:04:36.035Z,20.14
2023-05-19T20:07:41.558Z,20.08
2023-05-19T20:10:45.530Z,19.94
2023-05-19T20:13:49.546Z,19.93
2023-05-19T20:16:53.488Z,19.69
2023-05-19T20:19:58.599Z,19.81
2023-05-19T20:23:04.049Z,19.79
2023-05-19T20:26:11.883Z,19.47
2023-05-19T20:29:17.145Z,19.45
2023-05-19T20:32:21.110Z,19.47
2023-05-19T20:35:25.424Z,19.53
2023-05-19T20:38:30.919Z,19.37
2023-05-19T20:41:34.891Z,19.44
2023-05-19T20:44:38.828Z,19.38
2023-05-19T20:47:42.950Z,19.26
2023-05-19T20:50:47.284Z,19.28
2023-05-19T20:53:52.983Z,19.24
2023-05-19T20:56:56.990Z,19.13
2023-05-19T21:00:01.140Z,19.14
2023-05-19T21:03:05.243Z,19.14
2023-05-19T21:06:09.298Z,18.99
2023-05-19T21:09:15.052Z,19.00
2023-05-19T21:12:20.589Z,18.90
2023-05-19T21:15:27.203Z,18.93
2023-05-19T21:18:31.291Z,18.83
2023-05-19T21:21:35.325Z,18.76
2023-05-19T21:24:40.710Z,18.90
2023-05-19T21:27:46.515Z,18.80
2023-05-19T21:30:50.483Z,18.76
2023-05-19T21:33:54.565Z,18.74
2023-05-19T21:36:58.543Z,18.97
2023-05-19T21:40:04.024Z,18.90
2023-05-19T21:43:07.953Z,18.85
2023-05-19T21:46:12.362Z,18.85
2023-05-19T21:49:16.701Z,18.91
2023-05-19T21:52:20.908Z,18.83
2023-05-19T21:55:26.341Z,18.99
2023-05-19T21:58:30.273Z,18.99
2023-05-19T22:01:34.316Z,18.99
2023-05-19T22:04:38.962Z,19.10
2023-05-19T22:07:43.217Z,19.02
2023-05-19T22:10:51.418Z,18.90
2023-05-19T22:13:55.908Z,18.90
2023-05-19T22:16:59.946Z,18.88
2023-05-19T22:20:04.045Z,18.69
2023-05-19T22:23:07.946Z,18.58
2023-05-19T22:26:13.394Z,18.71
2023-05-19T22:29:18.902Z,18.51
2023-05-19T22:32:22.853Z,18.65
2023-05-19T22:35:27.078Z,18.62
2023-05-19T22:38:31.109Z,18.63
2023-05-19T22:41:37.071Z,18.61
2023-05-19T22:44:41.087Z,18.70
2023-05-19T22:47:45.092Z,18.53
2023-05-19T22:50:49.090Z,18.52
2023-05-19T22:53:53.073Z,18.51
2023-05-19T22:56:58.417Z,18.56
2023-05-19T23:00:02.429Z,18.40
2023-05-19T23:03:06.617Z,18.40
2023-05-19T23:06:10.657Z,18.23
2023-05-19T23:09:16.125Z,18.00
2023-05-19T23:12:21.426Z,18.31
2023-05-19T23:15:25.468Z,18.00
2023-05-19T23:18:29.517Z,18.05
2023-05-19T23:21:34.045Z,17.81
2023-05-19T23:24:37.828Z,17.58
2023-05-19T23:27:43.243Z,17.58
2023-05-19T23:30:47.145Z,17.71
2023-05-19T23:33:51.141Z,17.62
2023-05-19T23:36:55.013Z,17.58
2023-05-19T23:39:59.095Z,17.48
2023-05-19T23:43:04.574Z,17.53
2023-05-19T23:46:08.619Z,17.59
2023-05-19T23:49:12.722Z,17.66
2023-05-19T23:52:17.044Z,17.49
2023-05-19T23:55:21.719Z,17.68
2023-05-19T23:58:27.129Z,17.57
